»·PEaware :: SWA389 KPHX-KSAN

SWA389 :: KPHX-KSAN

FLIGHT INFORMATION

Flight Status: Arrived
Operator:
Southwest Airlines
More flights by this operator :: More flights under this callsign
Pilot: Rick P. (13838)
Aircraft: BOEING 737-800
(B738)
More flights by this aircraft type
Origin: KPHX Phoenix Sky Harbor Intl
United States
Destination: KSAN San Diego Intl-Lindbergh
United States
More flights between these airports :: More routes between these airports
Route: JUDTH5 MOHAK J2 HOGGZ LUCKI1
File this flight plan on PilotEdge
Remarks: RMK / POWERED BY SIMBRIEF
Altitude:
(Current/Filed)
30,000ft
Speed:
(Current/Filed)
455kts
Departed: 25-Nov-17 01:08 PM
Arrived: 25-Nov-17 01:57 PM
Distance/Time
Traveled:
264nm/0:49
Distance/Time
To Go:
Arrived

Flight Plot

Page will automatically refresh every two minutes.


Map Options




Map Legend


Flown Route
Filed Route
Departure Airport
Arrival Airport
Navaid (VOR, NDB)
Fix

Horizontal Profiles

Position Reports

Time Latitude Longitude Heading Altitude Ground
Speed
25-Nov-17 12:39 33.433400 -111.998930 1 1143ft 0kts
25-Nov-17 12:40 33.433400 -111.998930 1 1143ft 0kts
25-Nov-17 12:41 33.433400 -111.998930 1 1143ft 0kts
25-Nov-17 12:42 33.433400 -111.998930 1 1143ft 0kts
25-Nov-17 12:43 33.433400 -111.998930 1 1143ft 0kts
25-Nov-17 12:44 33.433400 -111.998930 1 1143ft 0kts
25-Nov-17 12:45 33.433400 -111.998930 1 1143ft 0kts
25-Nov-17 12:46 33.433400 -111.998930 1 1143ft 0kts
25-Nov-17 12:47 33.433400 -111.998930 1 1143ft 0kts
25-Nov-17 12:48 33.433400 -111.998930 1 1143ft 0kts
25-Nov-17 12:49 33.433400 -111.998930 1 1143ft 0kts
25-Nov-17 12:50 33.433400 -111.998930 1 1143ft 0kts
25-Nov-17 12:51 33.433400 -111.998930 1 1143ft 0kts
25-Nov-17 12:52 33.433400 -111.998930 1 1143ft 0kts
25-Nov-17 12:53 33.433400 -111.998930 1 1143ft 0kts
25-Nov-17 12:54 33.433400 -111.998930 1 1143ft 0kts
25-Nov-17 12:55 33.433400 -111.998930 1 1143ft 0kts
25-Nov-17 12:56 33.433400 -111.998930 1 1143ft 0kts
25-Nov-17 12:57 33.433400 -111.998930 1 1143ft 0kts
25-Nov-17 12:58 33.433400 -111.998930 1 1143ft 0kts
25-Nov-17 12:59 33.433400 -111.998930 1 1143ft 0kts
25-Nov-17 13:00 33.433400 -111.998930 1 1143ft 0kts
25-Nov-17 13:01 33.433051 -111.998945 1 1143ft 0kts
25-Nov-17 13:02 33.432860 -111.998953 1 1143ft 0kts
25-Nov-17 13:03 33.432860 -111.998953 1 1143ft 0kts
25-Nov-17 13:04 33.432860 -111.998953 1 1143ft 0kts
25-Nov-17 13:05 33.432860 -111.998953 1 1143ft 0kts
25-Nov-17 13:06 33.432827 -112.000932 270 1143ft 13kts
25-Nov-17 13:07 33.432831 -112.006326 268 1143ft 19kts
25-Nov-17 13:08 33.432095 -112.011739 268 1143ft 20kts
25-Nov-17 13:09 33.432099 -112.019465 270 1143ft 29kts
25-Nov-17 13:10 33.432091 -112.026549 242 1143ft 0kts
25-Nov-17 13:11 33.432091 -112.026549 242 1143ft 0kts
25-Nov-17 13:12 33.431887 -112.026820 215 1143ft 11kts
25-Nov-17 13:13 33.431043 -112.018147 90 1143ft 113kts
25-Nov-17 13:14 33.431579 -111.960806 86 3338ft 182kts
25-Nov-17 13:15 33.432106 -111.886739 108 5755ft 243kts
25-Nov-17 13:16 33.377884 -111.846358 194 7991ft 259kts
25-Nov-17 13:17 33.349966 -111.915532 286 9449ft 259kts
25-Nov-17 13:18 33.360466 -112.005653 258 11810ft 306kts
25-Nov-17 13:19 33.309840 -112.102730 235 12965ft 381kts
25-Nov-17 13:20 33.245382 -112.207160 235 15342ft 396kts
25-Nov-17 13:21 33.179047 -112.314492 236 17571ft 407kts
25-Nov-17 13:22 33.111216 -112.424939 236 19564ft 419kts
25-Nov-17 13:23 33.040915 -112.538379 235 21349ft 429kts
25-Nov-17 13:24 32.970872 -112.655115 244 22942ft 436kts
25-Nov-17 13:25 32.940026 -112.794470 262 24337ft 439kts
25-Nov-17 13:26 32.920284 -112.939214 261 25614ft 447kts
25-Nov-17 13:27 32.900078 -113.086324 261 26783ft 455kts
25-Nov-17 13:28 32.879804 -113.235898 261 28123ft 455kts
25-Nov-17 13:29 32.859510 -113.384022 261 29673ft 452kts
25-Nov-17 13:30 32.838790 -113.531575 260 30081ft 452kts
25-Nov-17 13:31 32.817813 -113.679157 260 30079ft 452kts
25-Nov-17 13:32 32.796988 -113.826228 260 30075ft 452kts
25-Nov-17 13:33 32.776793 -113.973955 265 30071ft 452kts
25-Nov-17 13:34 32.776610 -114.122899 272 30068ft 451kts
25-Nov-17 13:35 32.783065 -114.271596 272 30065ft 451kts
25-Nov-17 13:36 32.797457 -114.419803 284 30063ft 452kts
25-Nov-17 13:37 32.835901 -114.561835 286 30062ft 452kts
25-Nov-17 13:38 32.872447 -114.705029 279 30060ft 450kts
25-Nov-17 13:39 32.876700 -114.853639 267 28566ft 452kts
25-Nov-17 13:40 32.873208 -115.003663 268 27068ft 456kts
25-Nov-17 13:41 32.869680 -115.154796 267 25563ft 445kts
25-Nov-17 13:42 32.866044 -115.295225 267 24162ft 414kts
25-Nov-17 13:43 32.853273 -115.425672 260 24124ft 416kts
25-Nov-17 13:44 32.832564 -115.561383 259 23877ft 416kts
25-Nov-17 13:45 32.810579 -115.694822 258 21904ft 405kts
25-Nov-17 13:46 32.789063 -115.824599 258 19899ft 393kts
25-Nov-17 13:47 32.776987 -115.949549 265 17896ft 364kts
25-Nov-17 13:48 32.769062 -116.064227 264 15893ft 336kts
25-Nov-17 13:49 32.760734 -116.173733 263 13887ft 330kts
25-Nov-17 13:50 32.752392 -116.281331 264 12088ft 323kts
25-Nov-17 13:51 32.744526 -116.383567 263 10862ft 301kts
25-Nov-17 13:52 32.736759 -116.482080 263 10006ft 293kts
25-Nov-17 13:53 32.727779 -116.579030 262 8864ft 301kts
25-Nov-17 13:54 32.718684 -116.675562 263 7999ft 279kts
25-Nov-17 13:55 32.712027 -116.760813 263 6727ft 272kts
25-Nov-17 13:56 32.700013 -116.844248 249 5529ft 244kts
25-Nov-17 13:57 32.677809 -116.914747 249 4539ft 214kts
25-Nov-17 13:58 32.681180 -116.980265 288 3663ft 205kts
25-Nov-17 13:59 32.698422 -117.045266 285 2860ft 203kts
25-Nov-17 14:00 32.712768 -117.104054 284 1836ft 172kts
25-Nov-17 14:01 32.725672 -117.157005 283 559ft 156kts
25-Nov-17 14:02 32.735566 -117.197999 287 23ft 40kts
25-Nov-17 14:03 32.735431 -117.201632 133 23ft 0kts
25-Nov-17 14:04 32.735431 -117.201631 133 23ft 0kts
25-Nov-17 14:05 32.735430 -117.201630 133 23ft 0kts
25-Nov-17 14:06 32.734895 -117.200218 135 23ft 15kts
25-Nov-17 14:07 32.733057 -117.200462 265 23ft 0kts
25-Nov-17 14:08 32.733057 -117.200462 265 23ft 0kts
25-Nov-17 14:09 32.733057 -117.200462 265 23ft 0kts
25-Nov-17 14:10 32.733057 -117.200462 265 23ft 0kts

Navigation Log

Ident Type
1. KPHX Airport
2. FUTEP Fix
3. AZCRD Fix
4. USEYE Fix
5. MASVE Fix
6. OAKLI Fix
7. GBN Navaid
8. JUDTH Fix
9. MOHAK Fix
10. MOHAK Fix
11. HOGGZ Fix
12. HOGGZ Fix
13. MANRS Fix
14. CBOLA Fix
15. KRMAA Fix
16. SOFII Fix
17. CMPOE Fix
18. HEELX Fix
19. JACKK Fix
20. AZTEK Fix
21. JEEVS Fix
22. LUCKI Fix
23. LYNDI Fix
24. KSAN Airport